Time;durP1;ratioP1;P1;durP2;ratioP2;P2;SDS_P1;SDS_P2;PMS_P1;PMS_P2;Temp;Humidity;BMP_temperature;BMP_pressure;BME280_temperature;BME280_humidity;BME280_pressure;Samples;Min_cycle;Max_cycle;Signal;HPM_P1;HPM_P2
2021/04/15 00:00:57;;;;;;;7.30;1.42;;;20.40;33.00;;;;;;4343621;32;20097;-42
2021/04/15 00:03:29;;;;;;;10.68;2.12;;;20.30;33.00;;;;;;4356233;32;20191;-43
2021/04/15 00:06:04;;;;;;;7.40;1.50;;;20.30;33.00;;;;;;4356096;32;20600;-43
2021/04/15 00:08:31;;;;;;;4.75;1.70;;;20.30;33.80;;;;;;4356312;32;20078;-42
2021/04/15 00:10:58;;;;;;;7.50;1.83;;;20.20;33.10;;;;;;4355849;32;20098;-41
2021/04/15 00:13:32;;;;;;;8.50;2.20;;;20.20;33.10;;;;;;4356020;32;20592;-42
2021/04/15 00:15:59;;;;;;;6.70;1.62;;;20.10;33.10;;;;;;4356200;32;20067;-42
2021/04/15 00:18:25;;;;;;;4.90;2.03;;;20.10;33.20;;;;;;4331567;32;20143;-42
2021/04/15 00:20:52;;;;;;;5.55;2.12;;;20.10;33.10;;;;;;4343570;32;20076;-43
2021/04/15 00:23:19;;;;;;;8.65;3.03;;;20.00;33.20;;;;;;4355929;32;20146;-43
2021/04/15 00:25:45;;;;;;;6.03;1.67;;;20.00;33.40;;;;;;4343836;32;20070;-43
2021/04/15 00:28:12;;;;;;;6.07;2.40;;;20.00;33.30;;;;;;4355428;32;20073;-42
2021/04/15 00:30:38;;;;;;;8.82;1.87;;;19.90;33.30;;;;;;4344343;32;20070;-42
2021/04/15 00:33:07;;;;;;;8.35;2.08;;;19.90;33.30;;;;;;4373595;32;20598;-43
2021/04/15 00:35:34;;;;;;;4.82;1.70;;;19.90;33.30;;;;;;4373449;32;20178;-42
2021/04/15 00:38:01;;;;;;;8.32;1.62;;;19.90;33.30;;;;;;4359355;32;20094;-42
2021/04/15 00:40:28;;;;;;;7.97;1.73;;;19.90;33.40;;;;;;4371461;32;20143;-43
2021/04/15 00:42:55;;;;;;;5.47;1.95;;;19.80;33.40;;;;;;4371825;32;20054;-43
2021/04/15 00:45:28;;;;;;;6.45;1.70;;;19.80;33.30;;;;;;4373465;32;20070;-43
2021/04/15 00:48:02;;;;;;;7.60;1.90;;;19.80;33.40;;;;;;4373400;32;20122;-43
2021/04/15 00:50:41;;;;;;;5.28;1.83;;;19.70;33.30;;;;;;4373245;32;20073;-43
2021/04/15 00:53:08;;;;;;;9.45;2.15;;;19.70;33.30;;;;;;4373563;32;20069;-41
2021/04/15 00:55:34;;;;;;;7.40;1.80;;;19.70;33.20;;;;;;4359256;32;20551;-43
2021/04/15 00:58:01;;;;;;;5.12;1.45;;;19.70;33.20;;;;;;4347035;32;20071;-42
2021/04/15 01:00:28;;;;;;;5.57;1.92;;;19.70;33.20;;;;;;4372967;32;20562;-41
2021/04/15 01:02:56;;;;;;;6.93;2.03;;;19.60;33.10;;;;;;4371457;32;20513;-42
2021/04/15 01:05:36;;;;;;;10.50;1.85;;;19.60;33.10;;;;;;4372757;32;20058;-41
2021/04/15 01:08:03;;;;;;;5.37;1.27;;;19.60;33.20;;;;;;4372769;32;20509;-42
2021/04/15 01:10:33;;;;;;;4.37;1.52;;;19.60;33.10;;;;;;4372787;32;20177;-43
2021/04/15 01:13:37;;;;;;;7.60;2.22;;;19.60;33.10;;;;;;4361129;32;20066;-42
2021/04/15 01:16:31;;;;;;;6.55;2.10;;;19.60;33.10;;;;;;4360114;32;20077;-43
2021/04/15 01:19:25;;;;;;;11.38;2.20;;;19.60;33.00;;;;;;4373233;32;21033;-42
2021/04/15 01:22:38;;;;;;;7.37;1.80;;;19.60;33.10;;;;;;4385060;32;20098;-42
2021/04/15 01:25:42;;;;;;;25.80;3.62;;;19.50;33.00;;;;;;4370476;32;20537;-42
2021/04/15 01:28:14;;;;;;;15.18;3.67;;;19.60;33.00;;;;;;4349578;32;20066;-42
2021/04/15 01:30:47;;;;;;;28.10;3.15;;;19.60;33.00;;;;;;4357824;32;20482;-43
2021/04/15 01:33:36;;;;;;;15.88;3.33;;;19.50;33.00;;;;;;4346513;32;20058;-40
2021/04/15 01:36:17;;;;;;;11.15;1.65;;;19.60;33.00;;;;;;4358104;32;20120;-42
2021/04/15 01:38:50;;;;;;;10.50;4.00;;;19.60;32.80;;;;;;4358080;32;20149;-35
2021/04/15 01:41:33;;;;;;;10.18;2.55;;;19.60;32.80;;;;;;4336302;32;20093;-42
2021/04/15 01:44:07;;;;;;;22.52;3.30;;;19.60;32.90;;;;;;4360685;32;20514;-42
2021/04/15 01:46:36;;;;;;;15.35;3.10;;;19.50;32.80;;;;;;4373510;32;20131;-42
2021/04/15 01:49:05;;;;;;;80.47;6.25;;;19.50;32.80;;;;;;4336129;32;20231;-42
2021/04/15 01:51:34;;;;;;;44.53;5.62;;;19.50;33.00;;;;;;4349472;32;20054;-41
2021/04/15 01:54:08;;;;;;;50.00;7.25;;;19.50;33.10;;;;;;4374119;32;20599;-41
2021/04/15 01:56:46;;;;;;;74.13;9.53;;;19.50;33.20;;;;;;4375674;32;20100;-44
2021/04/15 01:59:40;;;;;;;69.93;8.57;;;19.40;33.20;;;;;;4375696;32;20073;-42
2021/04/15 02:02:19;;;;;;;11.65;3.35;;;19.40;33.30;;;;;;4373852;32;20518;-43
2021/04/15 02:05:13;;;;;;;18.27;5.37;;;19.40;33.30;;;;;;4362177;32;20525;-36
2021/04/15 02:07:56;;;;;;;29.35;5.22;;;19.30;33.50;;;;;;4358805;32;20088;-43
2021/04/15 02:10:23;;;;;;;23.87;4.87;;;19.20;33.50;;;;;;4375643;32;20065;-41
2021/04/15 02:12:51;;;;;;;26.00;4.90;;;19.10;33.50;;;;;;4361139;32;20082;-42
2021/04/15 02:15:28;;;;;;;12.43;2.62;;;19.00;33.70;;;;;;4361645;32;20069;-41
2021/04/15 02:18:06;;;;;;;27.42;4.62;;;19.00;34.00;;;;;;4362292;32;20140;-42
2021/04/15 02:20:32;;;;;;;15.50;3.80;;;18.90;34.00;;;;;;4373489;32;20070;-43
2021/04/15 02:23:26;;;;;;;9.77;1.98;;;18.90;34.00;;;;;;4376808;32;20057;-42
2021/04/15 02:26:00;;;;;;;13.15;2.90;;;18.90;33.90;;;;;;4376406;32;20194;-43
2021/04/15 02:28:54;;;;;;;13.65;2.53;;;19.00;34.00;;;;;;4388662;32;20050;-42
2021/04/15 02:31:35;;;;;;;10.68;1.77;;;19.20;34.00;;;;;;4390079;32;20161;-43
2021/04/15 02:34:06;;;;;;;10.18;2.20;;;19.40;33.60;;;;;;4377006;32;20086;-43
2021/04/15 02:36:52;;;;;;;31.55;3.92;;;19.60;33.30;;;;;;4388173;32;20162;-42
2021/04/15 02:39:31;;;;;;;27.33;3.37;;;19.80;33.00;;;;;;4376169;32;20088;-40
2021/04/15 02:42:01;;;;;;;10.48;2.12;;;19.90;32.90;;;;;;4376970;32;20512;-42
2021/04/15 02:44:32;;;;;;;22.70;2.95;;;20.10;32.50;;;;;;4364149;32;20066;-42
2021/04/15 02:47:06;;;;;;;13.62;2.17;;;20.20;32.40;;;;;;4388117;32;20074;-44
2021/04/15 02:49:33;;;;;;;8.40;1.52;;;20.30;32.20;;;;;;4376364;32;20093;-41
2021/04/15 02:52:18;;;;;;;15.75;5.15;;;20.50;32.00;;;;;;4387768;32;20153;-44
2021/04/15 02:54:48;;;;;;;42.62;5.18;;;20.70;32.10;;;;;;4375497;32;20521;-42
2021/04/15 02:57:16;;;;;;;22.65;2.62;;;20.80;31.90;;;;;;4376258;32;20081;-42
2021/04/15 02:59:45;;;;;;;43.20;9.38;;;21.00;31.50;;;;;;4387760;32;20181;-44
2021/04/15 03:02:24;;;;;;;12.95;2.45;;;21.10;31.80;;;;;;4389299;32;20066;-43
2021/04/15 03:05:01;;;;;;;19.58;3.65;;;21.20;31.20;;;;;;4376332;32;20053;-42
2021/04/15 03:07:27;;;;;;;5.50;3.03;;;21.40;31.10;;;;;;4376313;32;20062;-43
2021/04/15 03:09:56;;;;;;;11.88;2.60;;;21.60;31.00;;;;;;4375380;32;20050;-43
2021/04/15 03:12:41;;;;;;;8.18;1.85;;;21.80;30.60;;;;;;4388230;32;20069;-42
2021/04/15 03:15:15;;;;;;;5.03;1.90;;;22.00;30.60;;;;;;4389491;32;20490;-44
2021/04/15 03:17:47;;;;;;;14.55;2.62;;;22.20;30.20;;;;;;4375728;32;20092;-42
2021/04/15 03:20:43;;;;;;;12.57;3.87;;;22.40;30.00;;;;;;4387962;32;20069;-42
2021/04/15 03:23:32;;;;;;;21.73;2.97;;;22.70;30.00;;;;;;4363711;32;20058;-43
2021/04/15 03:25:59;;;;;;;20.02;2.78;;;23.00;29.50;;;;;;4361401;32;20086;-42
2021/04/15 03:28:34;;;;;;;5.72;1.75;;;23.20;29.30;;;;;;4360261;32;20074;-43
2021/04/15 03:31:23;;;;;;;16.73;2.25;;;23.40;28.80;;;;;;4360122;32;20507;-42
2021/04/15 03:34:04;;;;;;;10.90;1.58;;;23.70;28.90;;;;;;4374229;32;20121;-44
2021/04/15 03:36:37;;;;;;;25.27;3.22;;;24.00;28.30;;;;;;4360115;32;20164;-44
2021/04/15 03:39:11;;;;;;;44.38;5.70;;;24.40;28.70;;;;;;4359795;32;20161;-42
2021/04/15 03:41:44;;;;;;;17.03;2.40;;;24.80;27.80;;;;;;4348379;32;20177;-42
2021/04/15 03:44:33;;;;;;;27.15;3.70;;;25.10;27.50;;;;;;4372270;32;20683;-42
2021/04/15 03:47:03;;;;;;;29.87;4.20;;;25.50;27.40;;;;;;4360277;32;20134;-43
2021/04/15 03:49:44;;;;;;;34.92;6.00;;;25.70;27.00;;;;;;4360479;32;20142;-43
2021/04/15 03:52:28;;;;;;;18.98;4.85;;;26.00;26.90;;;;;;4360661;32;20167;-42
2021/04/15 03:55:30;;;;;;;25.62;5.45;;;25.90;26.50;;;;;;4372304;32;20165;-41
2021/04/15 03:58:02;;;;;;;23.02;5.28;;;25.50;26.60;;;;;;4357912;32;20081;-43
2021/04/15 04:00:39;;;;;;;28.98;5.22;;;25.10;26.50;;;;;;4348071;32;20059;-43
2021/04/15 04:03:10;;;;;;;40.28;6.55;;;24.90;27.00;;;;;;4359659;32;20096;-44
2021/04/15 04:06:10;;;;;;;14.87;5.10;;;24.80;27.10;;;;;;4360407;32;20089;-43
2021/04/15 04:08:49;;;;;;;19.83;5.53;;;24.50;27.10;;;;;;4371885;32;20081;-42
2021/04/15 04:11:19;;;;;;;36.92;6.05;;;24.20;27.00;;;;;;4372193;32;20159;-43
2021/04/15 04:13:49;;;;;;;17.23;4.87;;;23.70;27.40;;;;;;4359884;32;20065;-43
2021/04/15 04:17:05;;;;;;;13.70;3.75;;;23.40;27.70;;;;;;4359982;32;20084;-43
2021/04/15 04:19:49;;;;;;;37.58;5.18;;;23.20;28.00;;;;;;4361790;32;20057;-44
2021/04/15 04:22:30;;;;;;;33.10;6.93;;;23.20;28.40;;;;;;4360207;32;20536;-44
2021/04/15 04:25:03;;;;;;;16.77;5.40;;;23.30;28.40;;;;;;4373101;32;20062;-45
2021/04/15 04:27:55;;;;;;;6.47;1.65;;;23.50;28.40;;;;;;4371868;32;20165;-42
2021/04/15 04:30:28;;;;;;;3.00;1.37;;;23.90;28.20;;;;;;4372145;32;20502;-44
2021/04/15 04:33:00;;;;;;;6.12;2.05;;;24.40;27.60;;;;;;4371784;32;20465;-41
2021/04/15 04:35:29;;;;;;;4.47;2.17;;;25.00;27.00;;;;;;4359771;32;20443;-42
2021/04/15 04:38:00;;;;;;;20.02;2.37;;;25.70;26.70;;;;;;4371503;32;20535;-41
2021/04/15 04:40:38;;;;;;;8.68;2.08;;;26.30;26.60;;;;;;4359696;32;20070;-43
2021/04/15 04:43:23;;;;;;;12.60;3.05;;;27.00;25.90;;;;;;4371938;32;20602;-43
2021/04/15 04:45:50;;;;;;;;;;;27.80;25.40;;;;;;4372046;32;20149;-43
2021/04/15 04:48:19;;;;;;;12.40;3.65;;;28.40;25.60;;;;;;4371489;32;19962;-43
2021/04/15 04:51:16;;;;;;;22.77;5.40;;;28.70;24.70;;;;;;4371872;32;20066;-43
2021/04/15 04:53:44;;;;;;;14.73;4.37;;;28.90;24.50;;;;;;4373291;32;20062;-43
2021/04/15 04:56:34;;;;;;;40.85;7.12;;;28.90;24.10;;;;;;4371488;32;20100;-43
2021/04/15 04:59:15;;;;;;;27.73;6.53;;;28.70;24.30;;;;;;4359456;32;20526;-42
2021/04/15 05:01:42;;;;;;;27.70;5.68;;;28.50;24.40;;;;;;4344299;32;20078;-43
2021/04/15 05:04:09;;;;;;;21.80;3.60;;;28.30;24.50;;;;;;4343309;32;20062;-43
2021/04/15 05:06:42;;;;;;;13.90;3.05;;;28.10;24.80;;;;;;4342899;32;20071;-43
2021/04/15 05:09:25;;;;;;;8.45;2.75;;;28.10;24.70;;;;;;4343302;32;20074;-43
2021/04/15 05:11:52;;;;;;;9.05;2.00;;;28.30;24.80;;;;;;4331161;32;20078;-43
2021/04/15 05:14:24;;;;;;;8.07;1.80;;;28.70;24.50;;;;;;4331157;32;20078;-41
2021/04/15 05:17:06;;;;;;;6.82;2.72;;;29.10;24.20;;;;;;4358683;32;20086;-48
2021/04/15 05:19:36;;;;;;;5.18;1.80;;;29.60;23.90;;;;;;4358364;32;20141;-43
2021/04/15 05:22:05;;;;;;;15.73;2.42;;;30.10;23.60;;;;;;4346024;32;20082;-42
2021/04/15 05:24:49;;;;;;;14.82;2.22;;;30.50;23.40;;;;;;4370531;32;20077;-43
2021/04/15 05:27:19;;;;;;;7.12;2.03;;;31.00;23.00;;;;;;4348497;32;20078;-42
2021/04/15 05:29:46;;;;;;;10.02;1.95;;;31.40;23.00;;;;;;4348290;32;20081;-41
2021/04/15 05:32:15;;;;;;;11.73;2.00;;;31.70;22.70;;;;;;4348760;32;20063;-42
2021/04/15 05:34:50;;;;;;;29.35;3.30;;;32.00;22.60;;;;;;4373244;32;20149;-41
2021/04/15 05:37:25;;;;;;;23.40;3.67;;;32.20;22.60;;;;;;4348758;32;20069;-42
2021/04/15 05:39:52;;;;;;;7.43;1.20;;;32.30;22.50;;;;;;4370878;32;20666;-43
2021/04/15 05:42:34;;;;;;;19.92;2.72;;;32.30;22.30;;;;;;4349715;32;20094;-42
2021/04/15 05:45:07;;;;;;;20.27;3.42;;;32.40;22.40;;;;;;4374331;32;20505;-41
2021/04/15 05:47:55;;;;;;;18.52;3.78;;;32.40;22.80;;;;;;4345687;32;20586;-40
2021/04/15 05:50:30;;;;;;;21.52;3.45;;;32.40;22.30;;;;;;4345781;32;20593;-42
2021/04/15 05:53:09;;;;;;;25.60;4.80;;;32.40;22.30;;;;;;4334825;32;20260;-41
2021/04/15 05:56:34;;;;;;;27.85;4.68;;;32.50;22.30;;;;;;4322274;32;20063;-41
2021/04/15 05:59:16;;;;;;;29.87;4.82;;;32.40;22.40;;;;;;4262435;33;20080;-41
2021/04/15 06:02:42;;;;;;;21.65;4.03;;;32.30;22.20;;;;;;4284337;33;20578;-42
2021/04/15 06:05:41;;;;;;;7.87;2.83;;;32.20;22.30;;;;;;4227463;33;20070;-42
2021/04/15 06:08:09;;;;;;;24.90;4.32;;;32.10;22.10;;;;;;4227346;33;20245;-41
2021/04/15 06:10:39;;;;;;;15.93;2.62;;;32.10;22.20;;;;;;4215986;33;20545;-41
2021/04/15 06:13:24;;;;;;;26.62;3.45;;;32.20;22.00;;;;;;4227390;33;20104;-42
2021/04/15 06:15:54;;;;;;;18.00;2.67;;;32.20;22.10;;;;;;4227509;33;20093;-41
2021/04/15 06:18:44;;;;;;;6.93;1.98;;;32.40;22.00;;;;;;4227550;33;20097;-41
2021/04/15 06:21:28;;;;;;;16.65;2.70;;;32.50;22.00;;;;;;4227575;33;20077;-41
2021/04/15 06:24:02;;;;;;;19.93;3.70;;;32.70;21.90;;;;;;4227590;33;20096;-42
2021/04/15 06:26:42;;;;;;;24.50;4.87;;;32.80;21.80;;;;;;4241370;33;20154;-41
2021/04/15 06:29:43;;;;;;;11.98;3.67;;;32.90;21.90;;;;;;4241688;33;20542;-41
2021/04/15 06:32:20;;;;;;;22.20;4.80;;;32.90;21.80;;;;;;4241506;33;20085;-43
2021/04/15 06:34:46;;;;;;;18.60;3.40;;;32.80;21.80;;;;;;4286204;33;20075;-42
2021/04/15 06:37:22;;;;;;;24.58;4.60;;;32.70;21.80;;;;;;4301046;33;20611;-42
2021/04/15 06:40:09;;;;;;;11.38;3.40;;;32.50;21.90;;;;;;4288464;33;20180;-42
2021/04/15 06:43:07;;;;;;;23.12;4.25;;;32.40;22.00;;;;;;4315778;33;20134;-41
2021/04/15 06:45:59;;;;;;;14.93;2.92;;;32.20;22.20;;;;;;4330393;33;20534;-42
2021/04/15 06:48:47;;;;;;;39.42;6.20;;;32.20;21.90;;;;;;4332077;33;20055;-41
2021/04/15 06:51:36;;;;;;;23.75;4.80;;;32.00;22.20;;;;;;4329750;33;20094;-42
2021/04/15 06:54:20;;;;;;;17.27;4.72;;;31.70;22.50;;;;;;4331200;33;20149;-38
2021/04/15 06:57:17;;;;;;;23.25;5.05;;;31.40;22.80;;;;;;4329918;33;20511;-42
2021/04/15 07:00:20;;;;;;;15.30;3.60;;;31.10;22.80;;;;;;4342302;33;20146;-44
2021/04/15 07:03:05;;;;;;;15.30;3.03;;;30.80;22.90;;;;;;4342556;33;20071;-42
2021/04/15 07:06:08;;;;;;;16.02;3.72;;;30.50;23.00;;;;;;4318602;33;20146;-42
2021/04/15 07:08:56;;;;;;;17.87;3.70;;;30.40;23.30;;;;;;4331111;33;20220;-41
2021/04/15 07:11:32;;;;;;;11.57;3.10;;;30.40;23.00;;;;;;4312039;33;20152;-41
2021/04/15 07:14:57;;;;;;;10.77;4.07;;;30.50;23.00;;;;;;4312844;33;20133;-42
2021/04/15 07:18:09;;;;;;;10.02;2.95;;;30.50;23.00;;;;;;4335745;32;20561;-42
2021/04/15 07:21:06;;;;;;;13.82;3.17;;;30.50;23.00;;;;;;4356756;32;20078;-42
2021/04/15 07:24:15;;;;;;;12.18;2.87;;;30.40;23.00;;;;;;4350676;32;20192;-41
2021/04/15 07:27:18;;;;;;;25.42;4.93;;;30.40;23.00;;;;;;4342135;32;20070;-42
2021/04/15 07:30:22;;;;;;;17.92;2.87;;;30.50;23.20;;;;;;4326753;33;20078;-42
2021/04/15 07:33:21;;;;;;;8.88;2.12;;;30.70;23.10;;;;;;4326929;33;20078;-42
2021/04/15 07:35:59;;;;;;;12.32;1.65;;;31.00;22.70;;;;;;4326892;33;20133;-42
2021/04/15 07:38:59;;;;;;;15.48;3.40;;;31.30;22.40;;;;;;4326784;33;20167;-41
2021/04/15 07:42:02;;;;;;;13.57;1.65;;;31.50;22.40;;;;;;4328850;32;20082;-41
2021/04/15 07:44:34;;;;;;;11.23;1.77;;;31.80;22.20;;;;;;4347433;32;20145;-41
2021/04/15 07:47:48;;;;;;;12.80;1.80;;;32.00;21.90;;;;;;4344635;32;20079;-41
2021/04/15 07:51:10;;;;;;;9.38;1.90;;;32.30;21.90;;;;;;4312240;33;20487;-41
2021/04/15 07:54:21;;;;;;;12.52;2.45;;;32.50;21.80;;;;;;4356512;32;20136;-42
2021/04/15 07:57:29;;;;;;;8.48;1.33;;;32.60;21.50;;;;;;4356404;32;20137;-41
2021/04/15 08:00:22;;;;;;;6.72;1.33;;;32.70;21.50;;;;;;4340388;32;20576;-41
2021/04/15 08:03:27;;;;;;;18.92;1.90;;;32.80;21.50;;;;;;4356094;32;20514;-40
2021/04/15 08:06:04;;;;;;;7.47;1.67;;;32.90;21.40;;;;;;4343827;32;20507;-40
2021/04/15 08:08:39;;;;;;;7.32;0.98;;;33.10;21.20;;;;;;4374297;32;20058;-41
2021/04/15 08:11:50;;;;;;;7.37;1.52;;;33.20;21.20;;;;;;4373737;32;20066;-37
2021/04/15 08:14:36;;;;;;;4.55;1.45;;;33.20;21.10;;;;;;4371844;32;20175;-41
2021/04/15 08:17:39;;;;;;;12.02;2.37;;;33.30;21.00;;;;;;4372489;32;20212;-41
2021/04/15 08:20:17;;;;;;;6.87;1.23;;;33.30;21.40;;;;;;4372274;32;20092;-41
2021/04/15 08:23:23;;;;;;;12.85;2.20;;;33.20;20.90;;;;;;4374687;32;20070;-40
2021/04/15 08:26:11;;;;;;;7.87;1.30;;;33.10;20.90;;;;;;4374780;32;20096;-40
2021/04/15 08:29:07;;;;;;;11.12;2.47;;;33.10;20.90;;;;;;4375187;32;20142;-37
2021/04/15 08:31:52;;;;;;;7.95;1.83;;;33.10;20.80;;;;;;4373476;32;20148;-40
2021/04/15 08:35:03;;;;;;;10.10;1.75;;;33.10;20.90;;;;;;4385608;32;20104;-41
2021/04/15 08:37:55;;;;;;;7.97;1.62;;;33.30;20.90;;;;;;4326306;33;20471;-39
2021/04/15 08:40:57;;;;;;;11.40;2.47;;;33.50;20.70;;;;;;4315049;33;20082;-39
2021/04/15 08:44:10;;;;;;;15.52;1.77;;;33.60;20.80;;;;;;4314191;33;20078;-41
2021/04/15 08:47:02;;;;;;;8.82;1.30;;;33.70;20.70;;;;;;4317377;33;20063;-40
2021/04/15 08:50:13;;;;;;;9.50;2.08;;;33.80;20.40;;;;;;4314948;33;20617;-40
2021/04/15 08:53:28;;;;;;;10.70;1.70;;;33.90;20.50;;;;;;4326112;33;20067;-39
2021/04/15 08:56:04;;;;;;;;;;;33.90;20.40;;;;;;4320157;33;20133;-40
2021/04/15 08:58:55;;;;;;;14.85;2.95;;;33.90;20.60;;;;;;4328472;32;19970;-41
2021/04/15 09:01:39;;;;;;;12.73;2.72;;;33.90;20.70;;;;;;4340575;33;20098;-40
2021/04/15 09:04:48;;;;;;;17.35;2.83;;;33.90;20.30;;;;;;4317095;33;20083;-41
2021/04/15 09:07:19;;;;;;;9.73;1.62;;;33.80;20.70;;;;;;4340714;33;20063;-40
2021/04/15 09:10:18;;;;;;;23.58;2.67;;;33.60;20.50;;;;;;4328821;33;20148;-40
2021/04/15 09:13:02;;;;;;;9.10;1.52;;;33.50;20.80;;;;;;4328510;33;20547;-39
2021/04/15 09:15:37;;;;;;;17.17;3.20;;;33.30;20.70;;;;;;4386847;32;20582;-40
2021/04/15 09:18:14;;;;;;;22.08;2.58;;;33.20;20.60;;;;;;4386720;32;20057;-39
2021/04/15 09:20:57;;;;;;;10.80;2.17;;;33.10;20.70;;;;;;4386506;32;20123;-38
2021/04/15 09:23:35;;;;;;;13.62;2.10;;;33.10;20.70;;;;;;4381541;32;20488;-40
2021/04/15 09:26:45;;;;;;;10.20;1.83;;;33.00;20.70;;;;;;4371422;32;20082;-40
2021/04/15 09:29:30;;;;;;;10.60;2.10;;;33.00;20.50;;;;;;4368198;32;20070;-40
2021/04/15 09:32:55;;;;;;;16.48;2.87;;;32.90;20.60;;;;;;4359709;32;20112;-40
2021/04/15 09:35:58;;;;;;;7.18;1.65;;;32.90;20.80;;;;;;4364000;32;20134;-42
2021/04/15 09:38:53;;;;;;;10.88;3.15;;;33.00;20.90;;;;;;4371476;32;20179;-40
2021/04/15 09:41:44;;;;;;;21.90;3.30;;;32.90;20.60;;;;;;4371261;32;20466;-39
2021/04/15 09:44:51;;;;;;;20.67;2.35;;;33.00;20.50;;;;;;4373065;32;20062;-39
2021/04/15 09:47:48;;;;;;;18.92;3.03;;;33.10;20.40;;;;;;4372887;32;20081;-40
2021/04/15 09:50:26;;;;;;;16.08;2.20;;;33.10;20.40;;;;;;4361599;32;20070;-38
2021/04/15 09:53:21;;;;;;;15.35;2.97;;;33.20;20.20;;;;;;4372442;32;20062;-40
2021/04/15 09:56:12;;;;;;;;;;;33.40;20.30;;;;;;4371325;32;20074;-41
2021/04/15 09:59:08;;;;;;;12.52;2.80;;;33.50;20.30;;;;;;4372882;32;19954;-42
2021/04/15 10:01:41;;;;;;;15.20;2.72;;;33.60;19.80;;;;;;4374405;32;20150;-40
2021/04/15 10:04:28;;;;;;;14.48;2.92;;;33.70;19.80;;;;;;4372942;32;20602;-41
2021/04/15 10:07:25;;;;;;;11.32;2.28;;;33.80;19.70;;;;;;4373306;32;20089;-40
2021/04/15 10:10:29;;;;;;;7.78;1.98;;;34.00;19.50;;;;;;4352954;32;20150;-40
2021/04/15 10:13:32;;;;;;;24.90;4.35;;;34.40;19.30;;;;;;4354812;32;20074;-41
2021/04/15 10:16:25;;;;;;;14.27;2.83;;;34.70;19.40;;;;;;4373092;32;20523;-38
2021/04/15 10:19:09;;;;;;;14.52;3.22;;;34.80;18.90;;;;;;4360554;32;20073;-39
2021/04/15 10:21:49;;;;;;;19.02;2.87;;;35.00;18.90;;;;;;4349583;32;20169;-39
2021/04/15 10:24:44;;;;;;;17.08;3.10;;;35.10;18.80;;;;;;4357673;32;20067;-37
2021/04/15 10:27:53;;;;;;;8.35;1.48;;;35.10;18.80;;;;;;4345815;32;20078;-38
2021/04/15 10:30:47;;;;;;;15.52;2.92;;;35.20;18.90;;;;;;4357710;32;20079;-39
2021/04/15 10:33:49;;;;;;;19.55;3.33;;;35.20;19.00;;;;;;4357927;32;20074;-40
2021/04/15 10:36:53;;;;;;;17.48;2.35;;;35.30;18.80;;;;;;4339121;32;20082;-40
2021/04/15 10:39:57;;;;;;;19.05;2.92;;;35.40;18.90;;;;;;4312983;33;20076;-38
2021/04/15 10:42:45;;;;;;;21.67;2.70;;;35.30;18.90;;;;;;4337476;33;20079;-41
2021/04/15 10:45:50;;;;;;;17.25;2.40;;;35.20;19.00;;;;;;4342790;33;20158;-39
2021/04/15 10:48:49;;;;;;;14.95;2.25;;;34.90;18.70;;;;;;4339636;33;20088;-40
2021/04/15 10:52:05;;;;;;;21.23;2.53;;;34.70;19.20;;;;;;4342360;33;20619;-37
2021/04/15 10:54:43;;;;;;;15.27;1.87;;;34.60;19.00;;;;;;4340851;33;20536;-41
2021/04/15 10:57:36;;;;;;;13.55;2.12;;;34.60;18.90;;;;;;4342593;33;20067;-39
2021/04/15 11:00:38;;;;;;;10.52;2.08;;;34.60;18.80;;;;;;4342415;33;20086;-40
2021/04/15 11:03:19;;;;;;;15.10;2.58;;;34.50;19.00;;;;;;4312551;33;20090;-39
2021/04/15 11:05:48;;;;;;;13.25;1.73;;;34.30;19.30;;;;;;4312702;33;20074;-35
2021/04/15 11:08:30;;;;;;;18.40;3.03;;;34.20;18.90;;;;;;4312895;33;20079;-39
2021/04/15 11:11:23;;;;;;;19.60;2.47;;;34.20;18.80;;;;;;4312698;33;20122;-39
2021/04/15 11:14:03;;;;;;;16.33;3.12;;;34.10;18.80;;;;;;4325773;33;20178;-40
2021/04/15 11:16:30;;;;;;;17.10;2.53;;;34.00;19.00;;;;;;4319029;33;20604;-38
2021/04/15 11:19:10;;;;;;;21.45;2.67;;;33.90;18.80;;;;;;4329974;33;20136;-40
2021/04/15 11:21:38;;;;;;;19.52;3.33;;;34.00;18.70;;;;;;4317916;32;20075;-40
2021/04/15 11:24:28;;;;;;;17.40;1.77;;;34.10;18.90;;;;;;4315271;32;20081;-40
2021/04/15 11:27:01;;;;;;;18.70;2.75;;;34.20;18.30;;;;;;4356406;32;20562;-40
2021/04/15 11:29:44;;;;;;;19.17;1.95;;;34.40;18.30;;;;;;4344501;32;20174;-40
2021/04/15 11:32:31;;;;;;;31.60;3.20;;;34.60;18.10;;;;;;4356721;32;20171;-39
2021/04/15 11:35:16;;;;;;;29.00;4.30;;;34.70;18.00;;;;;;4356669;32;20165;-41
2021/04/15 11:37:44;;;;;;;26.60;2.70;;;34.60;18.40;;;;;;4370132;32;20142;-39
2021/04/15 11:40:40;;;;;;;35.45;4.03;;;34.60;18.20;;;;;;4372866;32;20140;-39
2021/04/15 11:43:34;;;;;;;29.77;3.85;;;34.50;18.30;;;;;;4372633;32;20097;-39
2021/04/15 11:46:22;;;;;;;35.67;3.28;;;34.40;18.20;;;;;;4372800;32;20518;-38
2021/04/15 11:49:13;;;;;;;25.23;2.83;;;34.40;18.20;;;;;;4372541;32;20540;-37
2021/04/15 11:52:07;;;;;;;22.08;3.15;;;34.30;17.80;;;;;;4341348;33;20195;-40
2021/04/15 11:54:37;;;;;;;12.48;2.05;;;34.30;17.90;;;;;;4341563;33;20193;-40
2021/04/15 11:57:30;;;;;;;23.67;2.67;;;34.30;17.80;;;;;;4329340;33;20067;-39
2021/04/15 11:59:57;;;;;;;20.45;2.45;;;34.30;17.90;;;;;;4341191;33;20644;-38
2021/04/15 12:02:37;;;;;;;23.33;2.83;;;34.30;17.80;;;;;;4340960;33;20063;-38
2021/04/15 12:05:29;;;;;;;35.10;4.37;;;34.30;17.90;;;;;;4341821;33;20063;-38
2021/04/15 12:08:06;;;;;;;27.00;3.25;;;34.20;18.00;;;;;;4317750;33;20133;-40
2021/04/15 12:10:37;;;;;;;26.17;2.70;;;34.10;17.70;;;;;;4329965;33;20518;-40
2021/04/15 12:13:35;;;;;;;24.33;3.05;;;34.10;17.40;;;;;;4341370;33;20550;-39
2021/04/15 12:16:26;;;;;;;18.50;3.75;;;34.00;17.60;;;;;;4330646;33;20510;-40
2021/04/15 12:19:23;;;;;;;16.27;2.40;;;34.00;17.00;;;;;;4341332;33;20069;-39
2021/04/15 12:22:03;;;;;;;20.40;2.00;;;34.00;17.00;;;;;;4345655;32;20083;-41
2021/04/15 12:24:42;;;;;;;27.85;3.37;;;34.00;16.80;;;;;;4385390;32;20117;-40
2021/04/15 12:27:27;;;;;;;12.00;1.65;;;33.90;17.00;;;;;;4388488;32;20073;-42
2021/04/15 12:30:00;;;;;;;19.70;2.85;;;33.90;17.00;;;;;;4375830;32;20074;-39
2021/04/15 12:32:57;;;;;;;28.38;2.87;;;33.90;17.10;;;;;;4388686;32;20085;-39
2021/04/15 12:35:59;;;;;;;17.87;3.80;;;34.00;17.20;;;;;;4388207;32;20165;-40
2021/04/15 12:38:42;;;;;;;31.55;3.60;;;34.10;17.30;;;;;;4386753;32;20078;-39
2021/04/15 12:41:10;;;;;;;32.40;3.90;;;34.00;17.40;;;;;;4374567;32;20114;-38
2021/04/15 12:43:39;;;;;;;33.90;4.80;;;33.90;17.40;;;;;;4386471;32;20088;-41
2021/04/15 12:46:25;;;;;;;21.98;2.92;;;33.90;17.30;;;;;;4386367;32;20057;-40
2021/04/15 12:48:56;;;;;;;17.33;1.98;;;33.70;17.30;;;;;;4386840;32;20058;-36
2021/04/15 12:51:48;;;;;;;25.95;3.53;;;33.60;17.20;;;;;;4374465;32;20161;-37
2021/04/15 12:54:24;;;;;;;22.98;3.37;;;33.30;17.40;;;;;;4387730;32;20058;-41
2021/04/15 12:56:53;;;;;;;26.17;3.15;;;33.20;17.50;;;;;;4374325;32;20080;-39
2021/04/15 12:59:32;;;;;;;15.18;2.53;;;33.10;17.50;;;;;;4388120;32;20077;-40
2021/04/15 13:01:59;;;;;;;29.87;2.80;;;33.00;17.50;;;;;;4374969;32;20085;-39
2021/04/15 13:04:43;;;;;;;18.35;2.42;;;32.80;17.70;;;;;;4372838;32;20069;-40
2021/04/15 13:07:13;;;;;;;19.55;2.92;;;32.80;17.80;;;;;;4385408;32;20501;-39
2021/04/15 13:09:45;;;;;;;17.40;1.98;;;32.80;17.70;;;;;;4372991;32;20088;-41
2021/04/15 13:12:35;;;;;;;26.48;1.50;;;32.90;17.70;;;;;;4340383;33;20470;-40
2021/04/15 13:15:27;;;;;;;21.55;2.67;;;32.90;17.70;;;;;;4317113;33;20184;-39
2021/04/15 13:17:58;;;;;;;25.37;2.37;;;32.90;17.60;;;;;;4322710;33;20141;-36
2021/04/15 13:20:24;;;;;;;26.40;3.20;;;32.90;17.90;;;;;;4316429;33;20581;-37
2021/04/15 13:23:09;;;;;;;23.75;2.37;;;32.80;18.10;;;;;;4340478;33;20149;-38
2021/04/15 13:25:58;;;;;;;14.43;1.75;;;32.70;17.80;;;;;;4340953;33;20067;-39
2021/04/15 13:28:46;;;;;;;11.30;1.30;;;32.60;17.90;;;;;;4326741;33;20522;-37
2021/04/15 13:31:48;;;;;;;29.80;2.87;;;32.60;17.90;;;;;;4340423;33;20078;-39
2021/04/15 13:34:20;;;;;;;42.65;4.10;;;32.50;18.00;;;;;;4310922;33;20110;-39
2021/04/15 13:36:47;;;;;;;16.23;2.28;;;32.40;18.10;;;;;;4312767;33;20170;-40
2021/04/15 13:39:37;;;;;;;22.37;2.58;;;32.30;18.10;;;;;;4302250;33;20090;-40
2021/04/15 13:42:11;;;;;;;17.40;1.98;;;32.30;18.20;;;;;;4276350;33;20068;-40
2021/04/15 13:45:02;;;;;;;21.17;1.80;;;32.20;18.10;;;;;;4270346;33;20556;-40
2021/04/15 13:47:43;;;;;;;22.17;2.05;;;32.20;18.10;;;;;;4270324;33;20119;-38
2021/04/15 13:50:11;;;;;;;18.62;2.90;;;32.10;18.10;;;;;;4290730;33;20174;-40
2021/04/15 13:52:38;;;;;;;34.63;2.70;;;32.00;18.30;;;;;;4287258;33;20084;-40
2021/04/15 13:55:44;;;;;;;37.70;3.45;;;31.90;18.30;;;;;;4287377;33;20055;-39
2021/04/15 13:58:11;;;;;;;16.83;1.85;;;31.90;18.40;;;;;;4298931;33;20232;-40
2021/04/15 14:00:41;;;;;;;21.62;3.08;;;32.00;18.80;;;;;;4286887;33;20091;-41
2021/04/15 14:03:39;;;;;;;20.88;1.90;;;32.00;18.30;;;;;;4287381;33;20163;-39